This is the latest recevied weather packets stored in our database for station/object N9WHM. If no packets are shown the sender has not sent any weather packets the latest 10 day(s).
| Time | Temp. | Humidity | Pressure | Rain* | Wind** | Luminosity | Snow |
|---|---|---|---|---|---|---|---|
| 1777515644 | 11.11° C | 73% | 1017.9 hPa | 0 mm | - | 0 W/m² | - |
| 1777515341 | 11.11° C | 73% | 1017.5 hPa | 0 mm | - | 0 W/m² | - |
| 1777515037 | 11.11° C | 75% | 1017.5 hPa | 0 mm | - | 0 W/m² | - |
| 1777514733 | 11.11° C | 75% | 1017.6 hPa | 0 mm | - | 0 W/m² | - |
| 1777514431 | 10.56° C | 80% | 1017.9 hPa | 0 mm | - | 0 W/m² | - |
| 1777514127 | 10.56° C | 82% | 1017.6 hPa | 0 mm | - | 0 W/m² | - |
| 1777513824 | 10.56° C | 79% | 1017.5 hPa | 0 mm | - | 0 W/m² | - |
| 1777513521 | 10° C | 76% | 1017.4 hPa | 0 mm | - | 0 W/m² | - |
| 1777513218 | 10.56° C | 79% | 1017.3 hPa | 0 mm | - | 0 W/m² | - |
| 1777512914 | 10° C | 78% | 1017.2 hPa | 0 mm | - | 0 W/m² | - |
| 1777512308 | 11.11° C | 74% | 1017.3 hPa | 0 mm | - | 2 W/m² | - |
| 1777512004 | 11.67° C | 70% | 1017.4 hPa | 0 mm | - | 4 W/m² | - |
| 1777511703 | 11.67° C | 66% | 1017.5 hPa | 0 mm | - | 6 W/m² | - |
| 1777511400 | 12.22° C | 64% | 1017.3 hPa | 0 mm | - | 8 W/m² | - |
| 1777511096 | 12.78° C | 64% | 1017.4 hPa | 1.78 mm | - | 11 W/m² | - |
| 1777509273 | 15.56° C | 41% | 1017 hPa | 0 mm | - | 6 W/m² | - |
| 1777508965 | 15.56° C | 42% | 1017 hPa | 0 mm | - | 9 W/m² | - |
| 1777508662 | 15.56° C | 41% | 1016.9 hPa | 0 mm | - | 19 W/m² | - |
| 1777508360 | 15.56° C | 41% | 1016.9 hPa | 0 mm | - | 31 W/m² | - |
| 1777508056 | 15.56° C | 40% | 1016.4 hPa | 0 mm | - | 55 W/m² | - |
| 1777507450 | 16.67° C | 39% | 1016.6 hPa | 0 mm | - | 80 W/m² | - |
| 1777507147 | 17.22° C | 37% | 1016.9 hPa | 0 mm | - | 115 W/m² | - |
| 1777506542 | 16.67° C | 38% | 1016.9 hPa | 0 mm | - | 140 W/m² | - |
| 1777502886 | 16.67° C | 39% | 1017.2 hPa | 0 mm | - | 333 W/m² | - |
| 1777502281 | 15.56° C | 37% | 1017.3 hPa | 0 mm | - | 326 W/m² | - |
* Rain latest hour (hover to see other rain measurements)
** Current wind speed in m/s (hover to see current wind gust speed)